CMA27S LFPG-ZUUU
Flight info
| Callsign | CMA27S |
|---|---|
| Flight time | N/A |
| Altitude | 33000 |
| Route | LANVI DCT BEGAR DCT TRA DCT GAMSA N871 MADEB N606 ELMEM L607 GEDSO DCT LUMUS DCT BERTA DCT PODET DCT LAKIK DCT MAVIT DCT LAMIT DCT ASNEL DCT UDROS/N0470F270 M859 KARDE/N0475F350 UN644 ROLIN N644 LAGAS M747 SUBUT T923 ERLEV DCT NIJAT DCT METKA B476 DARVA/K0893F350 T898 OGOLI N193 DIBAD/K0898F370 N193 SR DCT TISIB L141 KAMUD/K0889S1130 W186 SADAN W187 TUSLI W112 VIKUP W191 DNC DCT VIKOV B330 MEXAD MEXAD7U |
| Aircraft | B77L/H-SDE1E2E3FGHIJ2J3J4J5M1RWXY/LB1D1 |
Departure
| Time | 2026-04-30 13:18 |
|---|---|
| Airport | Charles de Gaulle International Airport (LFPG) |
Arrival
| Time | N/A |
|---|---|
| Airport | Chengdu Shuangliu International Airport (ZUUU) |
| Time | Latitude | Longitude | Altitude | Speed | Heading |
|---|---|---|---|---|---|
| 2026-04-30 13:06 | 48.99024 | 2.53240 | 338 ft | 0 kts | 266° |
| 2026-04-30 13:10 | 48.99024 | 2.53242 | 333 ft | 2 kts | 266° |
| 2026-04-30 13:11 | 48.99025 | 2.53267 | 336 ft | 2 kts | 264° |
| 2026-04-30 13:11 | 48.99027 | 2.53292 | 334 ft | 2 kts | 262° |
| 2026-04-30 13:11 | 48.99030 | 2.53317 | 333 ft | 2 kts | 258° |
| 2026-04-30 13:11 | 48.99034 | 2.53341 | 333 ft | 2 kts | 249° |
| 2026-04-30 13:12 | 48.99042 | 2.53363 | 333 ft | 2 kts | 217° |
| 2026-04-30 13:12 | 48.99055 | 2.53372 | 333 ft | 1 kts | 180° |
| 2026-04-30 13:12 | 48.99060 | 2.53372 | 333 ft | 0 kts | 178° |
| 2026-04-30 13:13 | 48.99058 | 2.53372 | 333 ft | 3 kts | 177° |
| 2026-04-30 13:13 | 48.99055 | 2.53496 | 335 ft | 10 kts | 11° |
| 2026-04-30 13:14 | 48.99127 | 2.53499 | 335 ft | 10 kts | 356° |
| 2026-04-30 13:14 | 48.99199 | 2.53489 | 333 ft | 10 kts | 353° |
| 2026-04-30 13:14 | 48.99431 | 2.53462 | 334 ft | 20 kts | 355° |
| 2026-04-30 13:15 | 48.99562 | 2.53512 | 334 ft | 20 kts | 37° |
| 2026-04-30 13:15 | 48.99773 | 2.53785 | 335 ft | 20 kts | 42° |
| 2026-04-30 13:15 | 48.99814 | 2.53981 | 334 ft | 20 kts | 85° |
| 2026-04-30 13:16 | 48.99826 | 2.54192 | 336 ft | 20 kts | 85° |
| 2026-04-30 13:16 | 48.99837 | 2.54401 | 338 ft | 20 kts | 85° |
| 2026-04-30 13:16 | 48.99849 | 2.54613 | 335 ft | 20 kts | 84° |
| 2026-04-30 13:17 | 48.99725 | 2.54955 | 348 ft | 20 kts | 119° |
| 2026-04-30 13:17 | 48.99640 | 2.55206 | 336 ft | 36 kts | 115° |
| 2026-04-30 13:17 | 48.99689 | 2.57495 | 398 ft | 186 kts | 85° |
| 2026-04-30 13:18 | 48.99780 | 2.59346 | 1631 ft | 169 kts | 87° |
| 2026-04-30 13:18 | 48.99966 | 2.63486 | 2866 ft | 223 kts | 85° |
| 2026-04-30 13:18 | 49.00114 | 2.65896 | 3477 ft | 238 kts | 88° |
| 2026-04-30 13:19 | 49.00258 | 2.68474 | 4247 ft | 247 kts | 88° |
| 2026-04-30 13:19 | 49.00398 | 2.71091 | 5078 ft | 253 kts | 88° |
| 2026-04-30 13:19 | 49.00544 | 2.73809 | 5892 ft | 259 kts | 88° |
| 2026-04-30 13:19 | 49.00686 | 2.76575 | 6747 ft | 264 kts | 89° |
| 2026-04-30 13:20 | 49.00686 | 2.79369 | 7487 ft | 265 kts | 99° |
| 2026-04-30 13:20 | 49.00392 | 2.82117 | 8274 ft | 267 kts | 103° |
| 2026-04-30 13:20 | 49.00048 | 2.84916 | 9119 ft | 269 kts | 102° |
| 2026-04-30 13:20 | 48.99722 | 2.87744 | 9930 ft | 272 kts | 101° |
| 2026-04-30 13:21 | 48.99403 | 2.90630 | 10598 ft | 280 kts | 101° |
| 2026-04-30 13:21 | 48.99071 | 2.93669 | 10842 ft | 304 kts | 101° |
| 2026-04-30 13:21 | 48.98736 | 2.96940 | 11046 ft | 328 kts | 99° |
| 2026-04-30 13:22 | 48.98119 | 3.04266 | 11911 ft | 361 kts | 98° |
| 2026-04-30 13:22 | 48.97808 | 3.08089 | 12635 ft | 368 kts | 98° |
| 2026-04-30 13:22 | 48.97164 | 3.15897 | 14304 ft | 375 kts | 98° |
| 2026-04-30 13:23 | 48.96832 | 3.19847 | 15041 ft | 378 kts | 98° |
| 2026-04-30 13:23 | 48.96152 | 3.27889 | 16472 ft | 387 kts | 98° |
| 2026-04-30 13:24 | 48.95450 | 3.36052 | 17846 ft | 395 kts | 98° |
| 2026-04-30 13:24 | 48.94723 | 3.44450 | 19158 ft | 402 kts | 98° |
| 2026-04-30 13:25 | 48.93986 | 3.52893 | 20459 ft | 406 kts | 98° |
| 2026-04-30 13:25 | 48.93382 | 3.61487 | 21689 ft | 412 kts | 95° |
| 2026-04-30 13:26 | 48.92746 | 3.74667 | 23523 ft | 420 kts | 95° |
| 2026-04-30 13:26 | 48.92283 | 3.83561 | 24545 ft | 426 kts | 95° |
| 2026-04-30 13:27 | 48.91791 | 3.92581 | 25449 ft | 432 kts | 95° |
| 2026-04-30 13:28 | 48.91020 | 4.06407 | 26818 ft | 442 kts | 95° |
| 2026-04-30 13:28 | 48.90493 | 4.15713 | 27673 ft | 448 kts | 95° |
| 2026-04-30 13:28 | 48.90197 | 4.20468 | 28085 ft | 449 kts | 98° |
| 2026-04-30 13:29 | 48.87863 | 4.29217 | 28678 ft | 456 kts | 120° |
| 2026-04-30 13:29 | 48.84652 | 4.37616 | 29389 ft | 462 kts | 118° |
| 2026-04-30 13:30 | 48.79911 | 4.50458 | 30552 ft | 466 kts | 118° |
| 2026-04-30 13:31 | 48.76764 | 4.59019 | 31446 ft | 463 kts | 118° |
| 2026-04-30 13:31 | 48.72062 | 4.71738 | 32629 ft | 460 kts | 118° |
| 2026-04-30 13:32 | 48.68929 | 4.80174 | 33144 ft | 462 kts | 118° |
| 2026-04-30 13:33 | 48.62646 | 4.97008 | 33186 ft | 459 kts | 118° |
| 2026-04-30 13:34 | 48.57917 | 5.09608 | 33189 ft | 459 kts | 118° |
| 2026-04-30 13:35 | 48.51608 | 5.26326 | 33191 ft | 459 kts | 118° |
| 2026-04-30 13:36 | 48.45260 | 5.43040 | 33195 ft | 459 kts | 118° |
| 2026-04-30 13:36 | 48.40480 | 5.55560 | 33197 ft | 460 kts | 118° |
| 2026-04-30 13:37 | 48.35691 | 5.68041 | 33204 ft | 460 kts | 118° |
| 2026-04-30 13:38 | 48.30948 | 5.80499 | 33187 ft | 458 kts | 114° |
| 2026-04-30 13:39 | 48.26963 | 5.98673 | 33221 ft | 458 kts | 106° |
| 2026-04-30 13:40 | 48.24074 | 6.12319 | 33212 ft | 458 kts | 107° |
| 2026-04-30 13:40 | 48.22076 | 6.21392 | 33208 ft | 459 kts | 107° |
| 2026-04-30 13:41 | 48.20059 | 6.30469 | 33203 ft | 459 kts | 107° |
| 2026-04-30 13:41 | 48.18034 | 6.39553 | 33194 ft | 459 kts | 107° |
| 2026-04-30 13:42 | 48.16014 | 6.48587 | 33196 ft | 459 kts | 107° |
| 2026-04-30 13:42 | 48.12963 | 6.62169 | 33197 ft | 459 kts | 107° |
| 2026-04-30 13:43 | 48.10913 | 6.71239 | 33200 ft | 459 kts | 107° |
| 2026-04-30 13:43 | 48.08872 | 6.80235 | 33203 ft | 460 kts | 107° |
| 2026-04-30 13:44 | 48.06806 | 6.89304 | 33231 ft | 461 kts | 107° |
| 2026-04-30 13:44 | 48.04727 | 6.98391 | 33205 ft | 462 kts | 107° |
| 2026-04-30 13:45 | 48.01594 | 7.12009 | 33212 ft | 462 kts | 107° |
| 2026-04-30 13:46 | 47.99510 | 7.21022 | 33213 ft | 462 kts | 107° |
| 2026-04-30 13:46 | 47.97401 | 7.30105 | 33219 ft | 462 kts | 107° |
| 2026-04-30 13:47 | 47.95295 | 7.39139 | 33211 ft | 462 kts | 107° |
| 2026-04-30 13:47 | 47.93174 | 7.48199 | 33212 ft | 462 kts | 107° |
| 2026-04-30 13:48 | 47.91047 | 7.57250 | 33209 ft | 463 kts | 107° |
| 2026-04-30 13:48 | 47.88837 | 7.66275 | 33210 ft | 462 kts | 108° |
| 2026-04-30 13:49 | 47.86555 | 7.75233 | 33210 ft | 462 kts | 108° |
| 2026-04-30 13:49 | 47.84284 | 7.84151 | 33211 ft | 460 kts | 108° |
| 2026-04-30 13:50 | 47.82028 | 7.93019 | 33199 ft | 460 kts | 108° |
| 2026-04-30 13:50 | 47.78625 | 8.06371 | 33222 ft | 460 kts | 108° |
| 2026-04-30 13:51 | 47.76344 | 8.15273 | 33215 ft | 461 kts | 108° |
| 2026-04-30 13:51 | 47.74066 | 8.24125 | 33238 ft | 461 kts | 108° |
| 2026-04-30 13:52 | 47.71765 | 8.33034 | 33230 ft | 462 kts | 108° |
| 2026-04-30 13:52 | 47.69454 | 8.41955 | 33237 ft | 463 kts | 108° |
| 2026-04-30 13:53 | 47.67253 | 8.50945 | 33235 ft | 462 kts | 105° |
| 2026-04-30 13:53 | 47.65581 | 8.58484 | 33233 ft | 462 kts | 105° |
| 2026-04-30 13:54 | 47.63243 | 8.69003 | 33239 ft | 462 kts | 105° |
| 2026-04-30 13:54 | 47.61182 | 8.78069 | 33232 ft | 463 kts | 105° |
| 2026-04-30 13:55 | 47.59121 | 8.87039 | 33239 ft | 463 kts | 105° |
| 2026-04-30 13:55 | 47.57032 | 8.96086 | 33233 ft | 463 kts | 105° |
| 2026-04-30 13:56 | 47.55292 | 9.03596 | 33237 ft | 463 kts | 105° |
| 2026-04-30 13:56 | 47.53191 | 9.12634 | 33234 ft | 463 kts | 105° |
| 2026-04-30 13:57 | 47.51097 | 9.21602 | 33237 ft | 463 kts | 105° |
| 2026-04-30 13:57 | 47.48984 | 9.30615 | 33243 ft | 464 kts | 105° |
| 2026-04-30 13:58 | 47.45801 | 9.44129 | 33250 ft | 464 kts | 105° |
| 2026-04-30 13:59 | 47.43671 | 9.53130 | 33245 ft | 464 kts | 105° |
| 2026-04-30 13:59 | 47.41543 | 9.62084 | 33245 ft | 464 kts | 105° |
| 2026-04-30 14:00 | 47.39939 | 9.71254 | 33241 ft | 459 kts | 97° |
| 2026-04-30 14:00 | 47.38188 | 9.85211 | 33229 ft | 460 kts | 97° |
| 2026-04-30 14:01 | 47.36982 | 9.94500 | 33239 ft | 462 kts | 97° |
| 2026-04-30 14:01 | 47.35761 | 10.03731 | 33213 ft | 460 kts | 97° |
| 2026-04-30 14:02 | 47.34527 | 10.13016 | 33211 ft | 461 kts | 97° |
| 2026-04-30 14:02 | 47.33289 | 10.22295 | 33216 ft | 462 kts | 97° |
| 2026-04-30 14:03 | 47.32037 | 10.31602 | 33222 ft | 463 kts | 97° |
| 2026-04-30 14:03 | 47.30788 | 10.40905 | 33218 ft | 462 kts | 97° |
| 2026-04-30 14:04 | 47.29544 | 10.50143 | 33220 ft | 462 kts | 97° |
| 2026-04-30 14:04 | 47.28273 | 10.59433 | 33226 ft | 462 kts | 97° |
| 2026-04-30 14:05 | 47.26875 | 10.68680 | 33228 ft | 463 kts | 98° |
| 2026-04-30 14:05 | 47.25434 | 10.77918 | 33212 ft | 462 kts | 98° |
| 2026-04-30 14:06 | 47.23289 | 10.91724 | 33222 ft | 463 kts | 98° |
| 2026-04-30 14:07 | 47.21129 | 11.05613 | 33225 ft | 463 kts | 98° |
| 2026-04-30 14:08 | 47.18966 | 11.19414 | 33221 ft | 464 kts | 98° |
| 2026-04-30 14:08 | 47.16769 | 11.33302 | 33229 ft | 465 kts | 98° |
| 2026-04-30 14:09 | 47.15299 | 11.42519 | 33209 ft | 465 kts | 98° |
| 2026-04-30 14:10 | 47.13075 | 11.56379 | 33232 ft | 465 kts | 98° |
| 2026-04-30 14:10 | 47.11578 | 11.65656 | 33216 ft | 467 kts | 98° |
| 2026-04-30 14:11 | 47.10083 | 11.74855 | 33221 ft | 466 kts | 98° |
| 2026-04-30 14:11 | 47.08572 | 11.84118 | 33233 ft | 466 kts | 98° |
| 2026-04-30 14:12 | 47.06869 | 11.93343 | 33229 ft | 469 kts | 101° |
| 2026-04-30 14:12 | 47.04971 | 12.02514 | 33224 ft | 469 kts | 102° |
| 2026-04-30 14:13 | 47.03065 | 12.11663 | 33233 ft | 469 kts | 102° |
| 2026-04-30 14:13 | 47.01174 | 12.20801 | 33224 ft | 470 kts | 102° |
| 2026-04-30 14:14 | 46.99273 | 12.29987 | 33225 ft | 470 kts | 102° |
| 2026-04-30 14:14 | 46.97378 | 12.39120 | 33228 ft | 471 kts | 102° |
| 2026-04-30 14:15 | 46.95458 | 12.48320 | 33222 ft | 472 kts | 102° |
| 2026-04-30 14:15 | 46.93531 | 12.57509 | 33225 ft | 473 kts | 102° |
| 2026-04-30 14:16 | 46.91598 | 12.66682 | 33204 ft | 471 kts | 102° |
| 2026-04-30 14:16 | 46.89666 | 12.75808 | 33232 ft | 474 kts | 102° |
| 2026-04-30 14:17 | 46.87705 | 12.85037 | 33224 ft | 475 kts | 102° |
| 2026-04-30 14:17 | 46.85739 | 12.94243 | 33231 ft | 472 kts | 102° |
| 2026-04-30 14:18 | 46.83769 | 13.03431 | 33207 ft | 475 kts | 102° |
| 2026-04-30 14:18 | 46.80804 | 13.17176 | 33251 ft | 476 kts | 102° |
| 2026-04-30 14:19 | 46.77797 | 13.31024 | 33230 ft | 475 kts | 103° |
| 2026-04-30 14:20 | 46.75802 | 13.40160 | 33253 ft | 476 kts | 103° |
| 2026-04-30 14:20 | 46.72771 | 13.53968 | 33261 ft | 478 kts | 103° |
| 2026-04-30 14:21 | 46.70732 | 13.63209 | 33260 ft | 479 kts | 103° |
| 2026-04-30 14:22 | 46.67663 | 13.77034 | 33258 ft | 479 kts | 103° |
| 2026-04-30 14:22 | 46.64576 | 13.90854 | 33288 ft | 480 kts | 103° |
| 2026-04-30 14:23 | 46.60409 | 14.09380 | 33321 ft | 481 kts | 104° |
| 2026-04-30 14:24 | 46.56858 | 14.23057 | 33328 ft | 486 kts | 109° |
| 2026-04-30 14:25 | 46.51428 | 14.41055 | 33309 ft | 488 kts | 109° |
| 2026-04-30 14:26 | 46.47382 | 14.54578 | 33310 ft | 489 kts | 110° |
| 2026-04-30 14:27 | 46.43352 | 14.68212 | 33309 ft | 488 kts | 108° |
| 2026-04-30 14:27 | 46.40885 | 14.77323 | 33328 ft | 488 kts | 108° |
| 2026-04-30 14:28 | 46.37157 | 14.91074 | 33332 ft | 489 kts | 108° |
| 2026-04-30 14:28 | 46.34626 | 15.00241 | 33338 ft | 490 kts | 108° |
| 2026-04-30 14:29 | 46.29962 | 15.17010 | 33340 ft | 491 kts | 109° |
| 2026-04-30 14:31 | 46.23119 | 15.41421 | 33345 ft | 493 kts | 109° |
| 2026-04-30 14:31 | 46.19232 | 15.55184 | 33345 ft | 493 kts | 109° |
| 2026-04-30 14:32 | 46.15632 | 15.69089 | 33354 ft | 491 kts | 104° |
| 2026-04-30 14:33 | 46.13612 | 15.78472 | 33359 ft | 492 kts | 104° |
| 2026-04-30 14:33 | 46.10542 | 15.92637 | 33349 ft | 493 kts | 104° |
| 2026-04-30 14:34 | 46.08462 | 16.02069 | 33351 ft | 494 kts | 105° |
| 2026-04-30 14:34 | 46.06376 | 16.11460 | 33348 ft | 494 kts | 105° |
| 2026-04-30 14:35 | 46.03216 | 16.25612 | 33349 ft | 495 kts | 105° |
| 2026-04-30 14:36 | 46.01096 | 16.35059 | 33348 ft | 495 kts | 105° |
| 2026-04-30 14:36 | 45.98980 | 16.44447 | 33352 ft | 495 kts | 105° |
| 2026-04-30 14:37 | 45.96843 | 16.53884 | 33351 ft | 496 kts | 105° |
| 2026-04-30 14:37 | 45.94710 | 16.63263 | 33350 ft | 496 kts | 105° |
| 2026-04-30 14:38 | 45.92559 | 16.72686 | 33355 ft | 496 kts | 105° |
| 2026-04-30 14:38 | 45.90407 | 16.82065 | 33354 ft | 496 kts | 106° |
| 2026-04-30 14:39 | 45.88236 | 16.91490 | 33352 ft | 497 kts | 106° |
| 2026-04-30 14:39 | 45.86054 | 17.00920 | 33353 ft | 497 kts | 106° |
| 2026-04-30 14:40 | 45.82786 | 17.14967 | 33352 ft | 497 kts | 106° |
| 2026-04-30 14:40 | 45.80586 | 17.24371 | 33358 ft | 498 kts | 106° |
| 2026-04-30 14:41 | 45.78372 | 17.33799 | 33348 ft | 498 kts | 106° |
| 2026-04-30 14:41 | 45.76165 | 17.43154 | 33342 ft | 498 kts | 107° |
| 2026-04-30 14:42 | 45.73932 | 17.52582 | 33357 ft | 498 kts | 107° |
| 2026-04-30 14:42 | 45.71695 | 17.61987 | 33339 ft | 499 kts | 107° |
| 2026-04-30 14:43 | 45.69459 | 17.71344 | 33352 ft | 500 kts | 107° |
| 2026-04-30 14:43 | 45.67200 | 17.80760 | 33345 ft | 500 kts | 107° |
| 2026-04-30 14:44 | 45.64938 | 17.90151 | 33348 ft | 500 kts | 107° |
| 2026-04-30 14:44 | 45.62674 | 17.99518 | 33344 ft | 500 kts | 107° |
| 2026-04-30 14:45 | 45.60469 | 18.08942 | 33343 ft | 500 kts | 103° |
| 2026-04-30 14:45 | 45.59208 | 18.18675 | 33346 ft | 497 kts | 95° |
| 2026-04-30 14:46 | 45.58299 | 18.28411 | 33344 ft | 497 kts | 95° |
| 2026-04-30 14:46 | 45.57518 | 18.36560 | 33336 ft | 497 kts | 96° |
| 2026-04-30 14:47 | 45.56381 | 18.47953 | 33329 ft | 497 kts | 96° |
| 2026-04-30 14:47 | 45.55549 | 18.56097 | 33325 ft | 498 kts | 96° |
| 2026-04-30 14:48 | 45.54542 | 18.65873 | 33328 ft | 498 kts | 96° |
| 2026-04-30 14:48 | 45.53530 | 18.75634 | 33317 ft | 498 kts | 96° |
| 2026-04-30 14:49 | 45.52509 | 18.85406 | 33324 ft | 498 kts | 96° |
| 2026-04-30 14:49 | 45.51486 | 18.95117 | 33320 ft | 498 kts | 96° |
| 2026-04-30 14:50 | 45.49927 | 19.09758 | 33327 ft | 498 kts | 96° |
| 2026-04-30 14:51 | 45.48347 | 19.24410 | 33320 ft | 498 kts | 97° |
| 2026-04-30 14:52 | 45.46747 | 19.39060 | 33320 ft | 499 kts | 97° |
| 2026-04-30 14:52 | 45.45134 | 19.53662 | 33302 ft | 499 kts | 97° |
| 2026-04-30 14:53 | 45.43494 | 19.68327 | 33309 ft | 499 kts | 97° |
| 2026-04-30 14:54 | 45.41282 | 19.87828 | 33294 ft | 501 kts | 97° |
| 2026-04-30 14:55 | 45.39592 | 20.02524 | 33293 ft | 501 kts | 97° |
| 2026-04-30 14:56 | 45.37314 | 20.22077 | 33291 ft | 502 kts | 97° |
| 2026-04-30 14:57 | 45.35577 | 20.36775 | 33281 ft | 502 kts | 97° |
| 2026-04-30 14:58 | 45.33238 | 20.56313 | 33273 ft | 503 kts | 98° |
| 2026-04-30 14:58 | 45.31460 | 20.70973 | 33264 ft | 503 kts | 98° |
| 2026-04-30 15:00 | 45.28446 | 20.95454 | 33252 ft | 504 kts | 98° |
| 2026-04-30 15:01 | 45.25993 | 21.15067 | 33242 ft | 505 kts | 98° |
| 2026-04-30 15:01 | 45.24137 | 21.29764 | 33245 ft | 505 kts | 97° |
| 2026-04-30 15:02 | 45.23410 | 21.39631 | 33247 ft | 503 kts | 92° |
| 2026-04-30 15:03 | 45.22045 | 21.64438 | 33237 ft | 504 kts | 92° |
| 2026-04-30 15:04 | 45.20534 | 21.89281 | 33245 ft | 506 kts | 93° |
| 2026-04-30 15:06 | 45.18973 | 22.14088 | 33239 ft | 507 kts | 93° |
| 2026-04-30 15:07 | 45.17707 | 22.33601 | 33252 ft | 507 kts | 93° |
| 2026-04-30 15:08 | 45.16380 | 22.53501 | 33259 ft | 509 kts | 94° |
| 2026-04-30 15:09 | 45.14671 | 22.78448 | 33271 ft | 511 kts | 94° |
| 2026-04-30 15:10 | 45.13252 | 22.98515 | 33283 ft | 513 kts | 95° |
| 2026-04-30 15:11 | 45.11055 | 23.28725 | 33279 ft | 515 kts | 95° |
| 2026-04-30 15:13 | 45.07610 | 23.53548 | 33288 ft | 518 kts | 105° |
| 2026-04-30 15:14 | 45.01286 | 23.88172 | 33297 ft | 521 kts | 105° |
| 2026-04-30 15:17 | 44.93058 | 24.32818 | 33298 ft | 524 kts | 106° |
| 2026-04-30 15:19 | 44.85553 | 24.72614 | 33303 ft | 528 kts | 107° |
| 2026-04-30 17:39 | 40.71667 | 51.28873 | 35181 ft | 515 kts | 86° |
| 2026-04-30 17:42 | 40.76694 | 51.75401 | 35178 ft | 515 kts | 77° |
| 2026-04-30 17:43 | 40.80453 | 51.98515 | 35169 ft | 515 kts | 77° |
| 2026-04-30 17:44 | 40.84899 | 52.26316 | 35173 ft | 516 kts | 78° |
| 2026-04-30 17:47 | 40.90746 | 52.68195 | 35170 ft | 516 kts | 87° |
| 2026-04-30 17:48 | 40.92054 | 53.01373 | 35161 ft | 516 kts | 88° |
| 2026-04-30 17:50 | 40.93518 | 53.39285 | 35156 ft | 517 kts | 88° |
| 2026-04-30 17:52 | 40.94523 | 53.67805 | 35152 ft | 518 kts | 88° |
| 2026-04-30 17:54 | 40.95901 | 54.10690 | 35145 ft | 519 kts | 89° |
| 2026-04-30 17:56 | 40.96993 | 54.48835 | 35140 ft | 519 kts | 89° |
| 2026-04-30 17:58 | 40.97730 | 54.77490 | 35136 ft | 519 kts | 89° |
| 2026-04-30 18:00 | 40.98585 | 55.15672 | 35127 ft | 519 kts | 90° |
| 2026-04-30 18:01 | 40.99051 | 55.39459 | 35130 ft | 518 kts | 90° |
| 2026-04-30 18:02 | 40.99547 | 55.68075 | 35115 ft | 518 kts | 91° |
| 2026-04-30 18:04 | 41.00000 | 55.96660 | 35117 ft | 518 kts | 91° |
| 2026-04-30 18:06 | 41.00500 | 56.33146 | 35094 ft | 516 kts | 91° |
| 2026-04-30 18:08 | 41.02497 | 56.66261 | 35104 ft | 519 kts | 82° |
| 2026-04-30 18:10 | 41.07004 | 57.03984 | 35091 ft | 518 kts | 84° |
| 2026-04-30 18:11 | 41.10784 | 57.37020 | 35087 ft | 519 kts | 84° |
| 2026-04-30 18:13 | 41.13427 | 57.60647 | 35086 ft | 519 kts | 84° |
| 2026-04-30 18:14 | 41.16032 | 57.84387 | 35086 ft | 520 kts | 84° |
| 2026-04-30 18:15 | 41.19093 | 58.12891 | 35084 ft | 521 kts | 85° |
| 2026-04-30 18:16 | 41.21091 | 58.31950 | 35079 ft | 521 kts | 85° |
| 2026-04-30 18:17 | 41.22080 | 58.41489 | 35076 ft | 521 kts | 85° |
| 2026-04-30 18:18 | 41.23549 | 58.55817 | 35075 ft | 522 kts | 85° |
| 2026-04-30 18:18 | 41.24521 | 58.65393 | 35077 ft | 522 kts | 85° |
| 2026-04-30 18:19 | 41.25476 | 58.74884 | 35071 ft | 521 kts | 86° |
| 2026-04-30 18:19 | 41.26430 | 58.84445 | 35071 ft | 521 kts | 86° |
| 2026-04-30 18:20 | 41.27375 | 58.93996 | 35067 ft | 521 kts | 86° |
| 2026-04-30 18:20 | 41.28312 | 59.03543 | 35066 ft | 520 kts | 86° |
| 2026-04-30 18:21 | 41.29239 | 59.13085 | 35070 ft | 520 kts | 86° |
| 2026-04-30 18:21 | 41.30160 | 59.22638 | 35060 ft | 520 kts | 86° |
| 2026-04-30 18:22 | 41.31070 | 59.32166 | 35066 ft | 519 kts | 86° |
| 2026-04-30 18:22 | 41.32414 | 59.46402 | 35065 ft | 519 kts | 87° |
| 2026-04-30 18:23 | 41.33304 | 59.55925 | 35058 ft | 519 kts | 87° |
| 2026-04-30 18:23 | 41.34135 | 59.65457 | 35064 ft | 517 kts | 90° |
| 2026-04-30 18:24 | 41.33776 | 59.79676 | 35060 ft | 512 kts | 99° |
| 2026-04-30 18:25 | 41.33271 | 59.89136 | 35054 ft | 513 kts | 98° |
| 2026-04-30 18:25 | 41.32606 | 60.03289 | 35052 ft | 513 kts | 98° |
| 2026-04-30 18:26 | 41.31929 | 60.17512 | 35047 ft | 513 kts | 98° |
| 2026-04-30 18:27 | 41.31243 | 60.31739 | 35045 ft | 514 kts | 98° |
| 2026-04-30 18:28 | 41.30783 | 60.46020 | 35041 ft | 519 kts | 91° |
| 2026-04-30 18:28 | 41.31598 | 60.60405 | 35048 ft | 520 kts | 89° |
| 2026-04-30 18:29 | 41.32650 | 60.79524 | 35036 ft | 520 kts | 90° |
| 2026-04-30 18:30 | 41.33611 | 60.98747 | 35040 ft | 520 kts | 90° |
| 2026-04-30 18:31 | 41.34316 | 61.13162 | 35041 ft | 520 kts | 90° |
| 2026-04-30 18:32 | 41.35004 | 61.27591 | 35031 ft | 521 kts | 90° |
| 2026-04-30 18:33 | 41.35672 | 61.41965 | 35031 ft | 521 kts | 90° |
| 2026-04-30 18:33 | 41.36319 | 61.56413 | 35034 ft | 521 kts | 90° |
| 2026-04-30 18:34 | 41.36949 | 61.70880 | 35028 ft | 522 kts | 90° |
| 2026-04-30 18:35 | 41.37359 | 61.80523 | 35030 ft | 522 kts | 90° |
| 2026-04-30 18:35 | 41.37761 | 61.90177 | 35029 ft | 522 kts | 90° |
| 2026-04-30 18:36 | 41.38350 | 62.04662 | 35028 ft | 522 kts | 90° |
| 2026-04-30 18:37 | 41.38920 | 62.19120 | 35025 ft | 521 kts | 90° |
| 2026-04-30 18:37 | 41.39286 | 62.28697 | 35023 ft | 521 kts | 90° |
| 2026-04-30 18:38 | 41.39648 | 62.38339 | 35021 ft | 520 kts | 90° |
| 2026-04-30 18:38 | 41.40002 | 62.47974 | 35023 ft | 520 kts | 90° |
| 2026-04-30 18:39 | 41.40361 | 62.57540 | 35014 ft | 520 kts | 89° |
| 2026-04-30 18:39 | 41.40746 | 62.67176 | 35016 ft | 519 kts | 89° |
| 2026-04-30 18:40 | 41.41125 | 62.76789 | 35009 ft | 519 kts | 90° |
| 2026-04-30 18:40 | 41.41489 | 62.86384 | 35000 ft | 518 kts | 90° |
| 2026-04-30 18:41 | 41.41841 | 62.95914 | 35003 ft | 518 kts | 90° |
| 2026-04-30 18:41 | 41.42187 | 63.05498 | 35004 ft | 518 kts | 90° |
| 2026-04-30 18:42 | 41.42525 | 63.15085 | 35003 ft | 517 kts | 90° |
| 2026-04-30 18:42 | 41.43016 | 63.29442 | 34999 ft | 516 kts | 90° |
| 2026-04-30 18:45 | 41.44636 | 63.81937 | 34991 ft | 515 kts | 90° |
| 2026-04-30 18:46 | 41.44888 | 63.91483 | 34983 ft | 515 kts | 90° |
| 2026-04-30 18:46 | 41.45134 | 64.01035 | 34979 ft | 515 kts | 90° |
| 2026-04-30 18:47 | 41.45374 | 64.10591 | 34973 ft | 515 kts | 90° |
| 2026-04-30 18:47 | 41.45604 | 64.20077 | 34968 ft | 515 kts | 90° |
| 2026-04-30 18:48 | 41.45828 | 64.29610 | 34975 ft | 515 kts | 90° |
| 2026-04-30 18:48 | 41.46043 | 64.39159 | 34969 ft | 515 kts | 90° |
| 2026-04-30 18:49 | 41.46251 | 64.48708 | 34960 ft | 515 kts | 90° |
| 2026-04-30 18:49 | 41.46451 | 64.58246 | 34954 ft | 515 kts | 90° |
| 2026-04-30 18:50 | 41.46643 | 64.67787 | 34946 ft | 515 kts | 91° |
| 2026-04-30 18:50 | 41.46827 | 64.77326 | 34945 ft | 514 kts | 91° |
| 2026-04-30 18:51 | 41.47003 | 64.86861 | 34940 ft | 515 kts | 91° |
| 2026-04-30 18:51 | 41.47172 | 64.96398 | 34937 ft | 514 kts | 91° |
| 2026-04-30 18:52 | 41.47331 | 65.05885 | 34931 ft | 514 kts | 91° |
| 2026-04-30 18:52 | 41.47484 | 65.15473 | 34927 ft | 514 kts | 91° |
| 2026-04-30 18:53 | 41.47628 | 65.24949 | 34925 ft | 513 kts | 91° |
| 2026-04-30 18:53 | 41.47765 | 65.34469 | 34920 ft | 513 kts | 91° |
| 2026-04-30 18:54 | 41.47893 | 65.43980 | 34916 ft | 513 kts | 91° |
| 2026-04-30 18:54 | 41.48013 | 65.53435 | 34913 ft | 513 kts | 91° |
| 2026-04-30 18:55 | 41.48109 | 65.61413 | 34909 ft | 513 kts | 91° |
| 2026-04-30 18:55 | 41.48266 | 65.75644 | 34904 ft | 513 kts | 91° |
| 2026-04-30 18:56 | 41.48352 | 65.89924 | 34897 ft | 513 kts | 92° |
| 2026-04-30 18:57 | 41.48362 | 66.04185 | 34889 ft | 513 kts | 92° |
| 2026-04-30 18:57 | 41.48368 | 66.13698 | 34888 ft | 513 kts | 92° |
| 2026-04-30 18:58 | 41.48369 | 66.27961 | 34888 ft | 512 kts | 92° |
| 2026-04-30 18:59 | 41.48351 | 66.42152 | 34885 ft | 512 kts | 92° |
| 2026-04-30 19:00 | 41.48174 | 66.61135 | 34881 ft | 510 kts | 97° |
| 2026-04-30 19:01 | 41.45598 | 66.79675 | 34875 ft | 509 kts | 104° |
| 2026-04-30 19:02 | 41.43508 | 66.93544 | 34878 ft | 509 kts | 103° |
| 2026-04-30 19:03 | 41.40760 | 67.12055 | 34877 ft | 509 kts | 103° |
| 2026-04-30 19:04 | 41.37977 | 67.30565 | 34876 ft | 509 kts | 104° |
| 2026-04-30 19:05 | 41.35173 | 67.48981 | 34883 ft | 508 kts | 104° |
| 2026-04-30 19:06 | 41.32337 | 67.67408 | 34885 ft | 508 kts | 104° |
| 2026-04-30 19:06 | 41.30192 | 67.81213 | 34900 ft | 508 kts | 104° |
| 2026-04-30 19:07 | 41.28106 | 67.94974 | 34880 ft | 509 kts | 100° |
| 2026-04-30 19:08 | 41.26486 | 68.13688 | 34899 ft | 509 kts | 98° |
| 2026-04-30 19:09 | 41.25258 | 68.27701 | 34904 ft | 509 kts | 99° |
| 2026-04-30 19:09 | 41.24409 | 68.37052 | 34906 ft | 509 kts | 99° |
| 2026-04-30 19:10 | 41.22695 | 68.55717 | 34913 ft | 508 kts | 99° |
| 2026-04-30 19:11 | 41.21399 | 68.69630 | 34919 ft | 509 kts | 99° |
| 2026-04-30 19:12 | 41.20522 | 68.78950 | 34923 ft | 509 kts | 99° |
| 2026-04-30 19:12 | 41.19636 | 68.88287 | 34924 ft | 509 kts | 99° |
| 2026-04-30 19:13 | 41.18888 | 69.07096 | 34937 ft | 511 kts | 93° |
| 2026-04-30 19:14 | 41.18670 | 69.16276 | 34939 ft | 510 kts | 94° |
| 2026-04-30 19:14 | 41.18284 | 69.25680 | 34937 ft | 509 kts | 97° |
| 2026-04-30 19:15 | 41.17516 | 69.35028 | 34944 ft | 509 kts | 98° |
| 2026-04-30 19:15 | 41.16305 | 69.49034 | 34947 ft | 509 kts | 98° |
| 2026-04-30 19:16 | 41.15523 | 69.58315 | 34955 ft | 508 kts | 98° |
| 2026-04-30 19:17 | 41.14343 | 69.72307 | 34985 ft | 508 kts | 98° |
| 2026-04-30 19:17 | 41.13144 | 69.86270 | 35007 ft | 508 kts | 98° |
| 2026-04-30 19:18 | 41.11928 | 70.00224 | 35025 ft | 507 kts | 98° |
| 2026-04-30 19:19 | 41.11109 | 70.09522 | 35026 ft | 507 kts | 98° |
| 2026-04-30 19:19 | 41.09996 | 70.23406 | 35045 ft | 508 kts | 94° |
| 2026-04-30 19:20 | 41.10333 | 70.32768 | 35045 ft | 509 kts | 85° |
| 2026-04-30 19:21 | 41.11487 | 70.46771 | 35044 ft | 509 kts | 85° |
| 2026-04-30 19:22 | 41.12862 | 70.65428 | 35039 ft | 507 kts | 85° |
| 2026-04-30 19:23 | 41.14801 | 70.93311 | 35007 ft | 506 kts | 86° |
| 2026-04-30 19:24 | 41.15735 | 71.07239 | 35003 ft | 505 kts | 86° |
| 2026-04-30 19:25 | 41.17258 | 71.30451 | 34966 ft | 504 kts | 86° |
| 2026-04-30 19:26 | 41.18438 | 71.48970 | 34950 ft | 505 kts | 86° |
| 2026-04-30 19:27 | 41.19305 | 71.62881 | 34948 ft | 505 kts | 86° |
| 2026-04-30 19:28 | 41.20158 | 71.76837 | 34965 ft | 504 kts | 86° |
| 2026-04-30 19:29 | 41.21246 | 71.95370 | 34983 ft | 504 kts | 86° |
| 2026-04-30 19:30 | 41.22301 | 72.13941 | 35004 ft | 504 kts | 86° |
| 2026-04-30 19:31 | 41.23353 | 72.32494 | 35019 ft | 504 kts | 86° |
| 2026-04-30 19:31 | 41.24145 | 72.46374 | 35029 ft | 503 kts | 86° |
| 2026-04-30 19:32 | 41.24662 | 72.55663 | 35038 ft | 504 kts | 86° |
| 2026-04-30 19:32 | 41.25168 | 72.64955 | 35048 ft | 504 kts | 86° |
| 2026-04-30 19:33 | 41.25651 | 72.74231 | 35053 ft | 504 kts | 86° |
| 2026-04-30 19:33 | 41.26126 | 72.83494 | 35060 ft | 504 kts | 86° |
| 2026-04-30 19:34 | 41.26597 | 72.92809 | 35063 ft | 503 kts | 86° |
| 2026-04-30 19:35 | 41.27287 | 73.06707 | 35077 ft | 503 kts | 86° |
| 2026-04-30 19:35 | 41.27737 | 73.15945 | 35080 ft | 503 kts | 86° |
| 2026-04-30 19:36 | 41.28182 | 73.25220 | 35092 ft | 502 kts | 86° |
| 2026-04-30 19:36 | 41.28831 | 73.39096 | 35098 ft | 502 kts | 86° |
| 2026-04-30 19:37 | 41.29255 | 73.48347 | 35108 ft | 501 kts | 86° |
| 2026-04-30 19:37 | 41.29676 | 73.57658 | 35103 ft | 501 kts | 86° |
| 2026-04-30 19:38 | 41.30083 | 73.66882 | 35110 ft | 502 kts | 86° |
| 2026-04-30 19:38 | 41.30486 | 73.76170 | 35111 ft | 502 kts | 86° |
| 2026-04-30 19:39 | 41.30881 | 73.85425 | 35110 ft | 502 kts | 87° |
| 2026-04-30 19:39 | 41.31270 | 73.94690 | 35114 ft | 502 kts | 87° |
| 2026-04-30 19:40 | 41.31682 | 74.03929 | 35115 ft | 503 kts | 85° |
| 2026-04-30 19:40 | 41.32350 | 74.13190 | 35118 ft | 503 kts | 84° |
| 2026-04-30 19:41 | 41.33072 | 74.22447 | 35126 ft | 503 kts | 84° |
| 2026-04-30 19:41 | 41.33750 | 74.31734 | 35137 ft | 503 kts | 84° |
| 2026-04-30 19:42 | 41.34392 | 74.40974 | 35128 ft | 504 kts | 84° |
| 2026-04-30 19:42 | 41.35028 | 74.50274 | 35133 ft | 503 kts | 84° |
| 2026-04-30 19:43 | 41.35655 | 74.59508 | 35127 ft | 503 kts | 84° |
| 2026-04-30 19:44 | 41.36588 | 74.73430 | 35139 ft | 504 kts | 84° |
| 2026-04-30 19:44 | 41.37101 | 74.81188 | 35147 ft | 504 kts | 84° |
| 2026-04-30 19:45 | 41.37706 | 74.90444 | 35145 ft | 504 kts | 84° |
| 2026-04-30 19:45 | 41.38310 | 74.99789 | 35143 ft | 504 kts | 84° |
| 2026-04-30 19:46 | 41.38904 | 75.09072 | 35148 ft | 505 kts | 84° |
| 2026-04-30 19:46 | 41.39491 | 75.18362 | 35147 ft | 505 kts | 84° |
| 2026-04-30 19:47 | 41.40073 | 75.27696 | 35145 ft | 505 kts | 84° |
| 2026-04-30 19:47 | 41.40646 | 75.37006 | 35141 ft | 505 kts | 84° |
| 2026-04-30 19:48 | 41.41211 | 75.46313 | 35132 ft | 506 kts | 84° |
| 2026-04-30 19:48 | 41.41770 | 75.55661 | 35127 ft | 506 kts | 84° |
| 2026-04-30 19:49 | 41.42320 | 75.64960 | 35117 ft | 505 kts | 84° |
| 2026-04-30 19:49 | 41.43134 | 75.78947 | 35107 ft | 505 kts | 84° |
| 2026-04-30 19:50 | 41.43668 | 75.88258 | 35103 ft | 505 kts | 84° |
| 2026-04-30 19:50 | 41.44199 | 75.97625 | 35102 ft | 505 kts | 84° |
| 2026-04-30 19:51 | 41.44719 | 76.06944 | 35099 ft | 505 kts | 84° |
| 2026-04-30 19:51 | 41.45232 | 76.16250 | 35106 ft | 505 kts | 84° |
| 2026-04-30 19:52 | 41.45736 | 76.25556 | 35107 ft | 505 kts | 84° |
| 2026-04-30 19:52 | 41.46236 | 76.34929 | 35118 ft | 505 kts | 84° |
| 2026-04-30 19:53 | 41.46727 | 76.44275 | 35119 ft | 506 kts | 85° |
| 2026-04-30 19:53 | 41.47209 | 76.53602 | 35120 ft | 506 kts | 85° |
| 2026-04-30 19:54 | 41.47685 | 76.62938 | 35135 ft | 507 kts | 85° |
| 2026-04-30 19:54 | 41.48155 | 76.72312 | 35150 ft | 508 kts | 85° |
| 2026-04-30 19:55 | 41.48619 | 76.81729 | 35160 ft | 508 kts | 85° |
| 2026-04-30 19:55 | 41.49076 | 76.91162 | 35165 ft | 507 kts | 85° |
| 2026-04-30 19:56 | 41.49523 | 77.00535 | 35180 ft | 507 kts | 85° |
| 2026-04-30 19:56 | 41.49961 | 77.09901 | 35174 ft | 508 kts | 85° |
| 2026-04-30 19:57 | 41.50396 | 77.19332 | 35189 ft | 508 kts | 85° |
| 2026-04-30 19:57 | 41.50819 | 77.28714 | 35202 ft | 508 kts | 85° |
| 2026-04-30 19:58 | 41.51235 | 77.38098 | 35192 ft | 507 kts | 85° |
| 2026-04-30 19:58 | 41.51645 | 77.47517 | 35203 ft | 507 kts | 85° |
| 2026-04-30 19:59 | 41.52045 | 77.56871 | 35202 ft | 507 kts | 85° |
| 2026-04-30 20:00 | 41.52633 | 77.70970 | 35197 ft | 506 kts | 84° |
| 2026-04-30 20:00 | 41.53014 | 77.80333 | 35196 ft | 506 kts | 84° |
| 2026-04-30 20:01 | 41.53570 | 77.94372 | 35192 ft | 506 kts | 84° |
| 2026-04-30 20:01 | 41.53933 | 78.03737 | 35191 ft | 506 kts | 84° |
| 2026-04-30 20:02 | 41.54462 | 78.17779 | 35170 ft | 505 kts | 84° |
| 2026-04-30 20:03 | 41.54748 | 78.25586 | 35190 ft | 505 kts | 84° |
| 2026-04-30 20:03 | 41.55307 | 78.41308 | 35180 ft | 505 kts | 84° |
| 2026-04-30 20:04 | 41.55631 | 78.50668 | 35176 ft | 505 kts | 84° |
| 2026-04-30 20:05 | 41.56100 | 78.64684 | 35172 ft | 505 kts | 84° |
| 2026-04-30 20:05 | 41.56514 | 78.78706 | 35148 ft | 505 kts | 88° |
| 2026-04-30 20:06 | 41.55800 | 78.88086 | 35140 ft | 509 kts | 99° |
| 2026-04-30 20:06 | 41.54032 | 78.97262 | 35116 ft | 510 kts | 103° |
| 2026-04-30 20:07 | 41.52151 | 79.06357 | 35100 ft | 510 kts | 103° |
| 2026-04-30 20:08 | 41.49375 | 79.20039 | 35076 ft | 510 kts | 103° |
| 2026-04-30 20:08 | 41.47544 | 79.29166 | 35053 ft | 510 kts | 103° |
| 2026-04-30 20:09 | 41.45708 | 79.38277 | 35013 ft | 510 kts | 103° |
| 2026-04-30 20:09 | 41.42929 | 79.51965 | 35001 ft | 510 kts | 103° |
| 2026-04-30 20:10 | 41.40140 | 79.65605 | 34989 ft | 510 kts | 103° |
| 2026-04-30 20:11 | 41.37328 | 79.79272 | 34976 ft | 510 kts | 103° |
| 2026-04-30 20:11 | 41.35453 | 79.88333 | 34979 ft | 510 kts | 103° |
| 2026-04-30 20:12 | 41.32599 | 80.02053 | 34968 ft | 511 kts | 103° |
| 2026-04-30 20:13 | 41.30695 | 80.11155 | 34960 ft | 512 kts | 103° |
| 2026-04-30 20:13 | 41.28786 | 80.20242 | 34961 ft | 513 kts | 103° |
| 2026-04-30 20:14 | 41.26850 | 80.29427 | 34957 ft | 514 kts | 103° |
| 2026-04-30 20:14 | 41.24907 | 80.38564 | 34954 ft | 515 kts | 103° |
| 2026-04-30 20:15 | 41.22940 | 80.47709 | 34954 ft | 516 kts | 103° |
| 2026-04-30 20:15 | 41.20969 | 80.56838 | 34956 ft | 516 kts | 103° |
| 2026-04-30 20:16 | 41.18980 | 80.66023 | 34952 ft | 516 kts | 103° |
| 2026-04-30 20:16 | 41.16992 | 80.75170 | 34954 ft | 517 kts | 103° |
| 2026-04-30 20:17 | 41.14994 | 80.84320 | 34950 ft | 517 kts | 103° |
| 2026-04-30 20:17 | 41.12984 | 80.93488 | 34952 ft | 517 kts | 103° |
| 2026-04-30 20:18 | 41.10973 | 81.02623 | 34949 ft | 518 kts | 103° |
| 2026-04-30 20:18 | 41.08944 | 81.11805 | 34948 ft | 518 kts | 103° |
| 2026-04-30 20:19 | 41.06919 | 81.20923 | 34951 ft | 519 kts | 103° |
| 2026-04-30 20:19 | 41.04865 | 81.30144 | 35263 ft | 523 kts | 103° |
| 2026-04-30 20:19 | 41.03830 | 81.34766 | 35681 ft | 521 kts | 104° |
| 2026-04-30 20:20 | 41.02801 | 81.39355 | 36136 ft | 518 kts | 104° |
| 2026-04-30 20:20 | 41.01774 | 81.43928 | 36562 ft | 516 kts | 104° |
| 2026-04-30 20:20 | 41.00761 | 81.48431 | 36928 ft | 515 kts | 105° |
| 2026-04-30 20:21 | 40.98706 | 81.57540 | 36950 ft | 516 kts | 105° |
| 2026-04-30 20:21 | 40.96644 | 81.66645 | 36950 ft | 516 kts | 105° |
| 2026-04-30 20:22 | 40.94794 | 81.75789 | 36956 ft | 516 kts | 102° |
| 2026-04-30 20:22 | 40.93114 | 81.85021 | 36955 ft | 517 kts | 101° |
| 2026-04-30 20:23 | 40.91413 | 81.94242 | 36952 ft | 517 kts | 102° |
| 2026-04-30 20:23 | 40.89661 | 82.03469 | 36951 ft | 518 kts | 102° |
| 2026-04-30 20:24 | 40.87881 | 82.12706 | 36948 ft | 518 kts | 102° |
| 2026-04-30 20:24 | 40.86096 | 82.21923 | 36952 ft | 517 kts | 102° |
| 2026-04-30 20:25 | 40.83421 | 82.35687 | 36953 ft | 517 kts | 102° |
| 2026-04-30 20:26 | 40.80720 | 82.49497 | 36953 ft | 517 kts | 102° |
| 2026-04-30 20:26 | 40.78005 | 82.63281 | 36956 ft | 517 kts | 103° |
| 2026-04-30 20:27 | 40.74363 | 82.81622 | 36961 ft | 516 kts | 103° |
| 2026-04-30 20:28 | 40.70706 | 82.99876 | 36967 ft | 517 kts | 103° |
| 2026-04-30 20:30 | 40.66076 | 83.22757 | 36962 ft | 517 kts | 103° |
| 2026-04-30 20:31 | 40.60449 | 83.50229 | 36980 ft | 518 kts | 103° |
| 2026-04-30 20:32 | 40.55717 | 83.73054 | 36973 ft | 519 kts | 103° |
| 2026-04-30 20:33 | 40.52847 | 83.86783 | 36972 ft | 519 kts | 104° |
| 2026-04-30 20:34 | 40.49990 | 84.00525 | 36974 ft | 519 kts | 103° |
| 2026-04-30 20:35 | 40.47530 | 84.12726 | 36975 ft | 519 kts | 103° |
| 2026-04-30 20:35 | 40.44738 | 84.26460 | 36979 ft | 519 kts | 103° |
| 2026-04-30 20:36 | 40.42862 | 84.35598 | 36978 ft | 518 kts | 104° |
| 2026-04-30 20:37 | 40.40034 | 84.49292 | 36982 ft | 518 kts | 104° |
| 2026-04-30 20:37 | 40.38135 | 84.58441 | 36984 ft | 518 kts | 104° |
| 2026-04-30 20:38 | 40.36245 | 84.67507 | 36986 ft | 518 kts | 104° |
| 2026-04-30 20:38 | 40.34336 | 84.76627 | 36987 ft | 518 kts | 104° |
| 2026-04-30 20:39 | 40.31457 | 84.90306 | 36990 ft | 519 kts | 104° |
| 2026-04-30 20:40 | 40.28563 | 85.03970 | 36993 ft | 519 kts | 104° |
| 2026-04-30 20:40 | 40.26623 | 85.13079 | 36995 ft | 519 kts | 104° |
| 2026-04-30 20:41 | 40.23695 | 85.26755 | 37004 ft | 520 kts | 104° |
| 2026-04-30 20:41 | 40.21737 | 85.35853 | 37007 ft | 520 kts | 105° |
| 2026-04-30 20:42 | 40.19767 | 85.44969 | 37007 ft | 520 kts | 105° |
| 2026-04-30 20:43 | 40.16813 | 85.58566 | 37011 ft | 521 kts | 105° |
| 2026-04-30 20:43 | 40.14825 | 85.67668 | 37012 ft | 520 kts | 105° |
| 2026-04-30 20:44 | 40.11831 | 85.81308 | 37011 ft | 521 kts | 105° |
| 2026-04-30 20:45 | 40.07825 | 85.99517 | 37012 ft | 521 kts | 103° |
| 2026-04-30 20:45 | 40.06415 | 86.08783 | 37033 ft | 520 kts | 98° |
| 2026-04-30 20:46 | 40.03994 | 86.27362 | 37018 ft | 521 kts | 98° |
| 2026-04-30 20:47 | 40.02085 | 86.41344 | 37023 ft | 521 kts | 99° |
| 2026-04-30 20:48 | 40.00148 | 86.55308 | 37031 ft | 522 kts | 99° |
| 2026-04-30 20:48 | 39.98849 | 86.64614 | 37038 ft | 522 kts | 99° |
| 2026-04-30 20:49 | 39.97552 | 86.73864 | 37040 ft | 522 kts | 99° |
| 2026-04-30 20:50 | 39.95580 | 86.87819 | 37040 ft | 522 kts | 99° |
| 2026-04-30 20:50 | 39.94254 | 86.97132 | 37042 ft | 522 kts | 99° |
| 2026-04-30 20:51 | 39.92920 | 87.06443 | 37044 ft | 523 kts | 99° |
| 2026-04-30 20:51 | 39.90902 | 87.20418 | 37045 ft | 523 kts | 99° |
| 2026-04-30 20:52 | 39.89547 | 87.29739 | 37044 ft | 524 kts | 100° |
| 2026-04-30 20:53 | 39.87499 | 87.43722 | 37044 ft | 524 kts | 100° |
| 2026-04-30 20:53 | 39.86124 | 87.53040 | 37043 ft | 524 kts | 100° |
| 2026-04-30 20:54 | 39.84053 | 87.66974 | 37047 ft | 525 kts | 100° |
| 2026-04-30 20:55 | 39.81956 | 87.80970 | 37055 ft | 525 kts | 100° |
| 2026-04-30 20:55 | 39.80548 | 87.90305 | 37055 ft | 526 kts | 100° |
| 2026-04-30 20:56 | 39.78418 | 88.04301 | 37059 ft | 526 kts | 101° |
| 2026-04-30 20:57 | 39.76276 | 88.18255 | 37056 ft | 526 kts | 101° |
| 2026-04-30 20:57 | 39.74836 | 88.27586 | 37059 ft | 527 kts | 101° |
| 2026-04-30 20:58 | 39.72656 | 88.41601 | 37062 ft | 528 kts | 101° |
| 2026-04-30 20:58 | 39.71193 | 88.50945 | 37061 ft | 527 kts | 101° |
| 2026-04-30 20:59 | 39.68993 | 88.64900 | 37061 ft | 528 kts | 101° |
| 2026-04-30 21:00 | 39.66022 | 88.83565 | 37064 ft | 528 kts | 101° |
| 2026-04-30 21:01 | 39.63773 | 88.97558 | 37064 ft | 528 kts | 101° |
| 2026-04-30 21:02 | 39.61507 | 89.11544 | 37064 ft | 528 kts | 102° |
| 2026-04-30 21:02 | 39.59987 | 89.20865 | 37068 ft | 528 kts | 102° |
| 2026-04-30 21:03 | 39.58468 | 89.30133 | 37069 ft | 528 kts | 102° |
| 2026-04-30 21:03 | 39.56933 | 89.39444 | 37064 ft | 528 kts | 102° |
| 2026-04-30 21:04 | 39.55389 | 89.48760 | 37057 ft | 528 kts | 102° |
| 2026-04-30 21:04 | 39.53059 | 89.62727 | 37075 ft | 529 kts | 103° |
| 2026-04-30 21:05 | 39.51498 | 89.72029 | 37071 ft | 529 kts | 103° |
| 2026-04-30 21:05 | 39.49939 | 89.81265 | 37068 ft | 529 kts | 103° |
| 2026-04-30 21:06 | 39.48361 | 89.90570 | 37068 ft | 529 kts | 103° |
| 2026-04-30 21:06 | 39.46771 | 89.99892 | 37071 ft | 530 kts | 103° |
| 2026-04-30 21:07 | 39.45175 | 90.09206 | 37073 ft | 530 kts | 104° |
| 2026-04-30 21:07 | 39.43566 | 90.18546 | 37079 ft | 531 kts | 104° |
| 2026-04-30 21:08 | 39.41961 | 90.27815 | 37078 ft | 531 kts | 104° |
| 2026-04-30 21:08 | 39.40339 | 90.37139 | 37078 ft | 532 kts | 104° |
| 2026-04-30 21:09 | 39.38706 | 90.46478 | 37086 ft | 533 kts | 104° |
| 2026-04-30 21:09 | 39.37062 | 90.55828 | 37088 ft | 533 kts | 104° |
| 2026-04-30 21:10 | 39.35414 | 90.65160 | 37096 ft | 533 kts | 104° |
| 2026-04-30 21:10 | 39.33757 | 90.74495 | 37094 ft | 533 kts | 104° |
| 2026-04-30 21:11 | 39.32100 | 90.83782 | 37096 ft | 533 kts | 105° |
| 2026-04-30 21:11 | 39.30426 | 90.93119 | 37093 ft | 534 kts | 105° |
| 2026-04-30 21:12 | 39.28743 | 91.02462 | 37103 ft | 534 kts | 105° |
| 2026-04-30 21:12 | 39.27054 | 91.11788 | 37103 ft | 534 kts | 105° |
| 2026-04-30 21:13 | 39.25355 | 91.21126 | 37109 ft | 534 kts | 105° |
| 2026-04-30 21:13 | 39.23651 | 91.30451 | 37103 ft | 534 kts | 105° |
| 2026-04-30 21:14 | 39.21938 | 91.39785 | 37121 ft | 534 kts | 105° |
| 2026-04-30 21:14 | 39.20329 | 91.49138 | 37118 ft | 535 kts | 103° |
| 2026-04-30 21:15 | 39.18995 | 91.58580 | 37112 ft | 535 kts | 102° |
| 2026-04-30 21:15 | 39.17666 | 91.68019 | 37123 ft | 535 kts | 103° |
| 2026-04-30 21:16 | 39.16288 | 91.77378 | 37136 ft | 535 kts | 103° |
| 2026-04-30 21:16 | 39.14868 | 91.86812 | 37132 ft | 535 kts | 104° |
| 2026-04-30 21:17 | 39.13450 | 91.96219 | 37118 ft | 535 kts | 104° |
| 2026-04-30 21:17 | 39.12026 | 92.05624 | 37140 ft | 535 kts | 104° |
| 2026-04-30 21:18 | 39.10598 | 92.15019 | 37134 ft | 535 kts | 104° |
| 2026-04-30 21:18 | 39.09244 | 92.24385 | 37133 ft | 537 kts | 99° |
| 2026-04-30 21:19 | 39.09028 | 92.34021 | 37138 ft | 540 kts | 88° |
| 2026-04-30 21:19 | 39.10078 | 92.43605 | 37148 ft | 542 kts | 80° |
| 2026-04-30 21:20 | 39.11515 | 92.53159 | 37119 ft | 543 kts | 80° |
| 2026-04-30 21:20 | 39.12696 | 92.61093 | 37152 ft | 543 kts | 81° |
| 2026-04-30 21:21 | 39.14070 | 92.70689 | 37145 ft | 544 kts | 81° |
| 2026-04-30 21:22 | 39.16074 | 92.85113 | 37137 ft | 545 kts | 81° |
| 2026-04-30 21:23 | 39.18711 | 93.04293 | 37143 ft | 546 kts | 81° |
| 2026-04-30 21:23 | 39.20684 | 93.18773 | 37160 ft | 545 kts | 82° |
| 2026-04-30 21:24 | 39.21990 | 93.28420 | 37120 ft | 546 kts | 81° |
| 2026-04-30 21:24 | 39.23283 | 93.38056 | 37151 ft | 547 kts | 82° |
| 2026-04-30 21:25 | 39.25222 | 93.52608 | 37144 ft | 550 kts | 82° |
| 2026-04-30 21:26 | 39.27146 | 93.67189 | 37108 ft | 547 kts | 82° |
| 2026-04-30 21:27 | 39.29044 | 93.81734 | 37132 ft | 551 kts | 82° |
| 2026-04-30 21:27 | 39.30300 | 93.91431 | 37118 ft | 551 kts | 82° |
| 2026-04-30 21:28 | 39.32175 | 94.06049 | 37084 ft | 549 kts | 82° |
| 2026-04-30 21:29 | 39.34039 | 94.20707 | 37137 ft | 553 kts | 82° |
| 2026-04-30 21:30 | 39.37100 | 94.45132 | 37123 ft | 551 kts | 83° |
| 2026-04-30 21:31 | 39.40120 | 94.69684 | 37135 ft | 553 kts | 83° |
| 2026-04-30 21:32 | 39.41910 | 94.84418 | 37129 ft | 554 kts | 83° |
| 2026-04-30 21:32 | 39.43092 | 94.94247 | 37134 ft | 553 kts | 83° |
| 2026-04-30 21:33 | 39.44855 | 95.09061 | 37131 ft | 556 kts | 83° |
| 2026-04-30 21:34 | 39.46021 | 95.18942 | 37128 ft | 555 kts | 84° |
| 2026-04-30 21:34 | 39.47756 | 95.33774 | 37136 ft | 555 kts | 84° |
| 2026-04-30 21:35 | 39.48895 | 95.43614 | 37138 ft | 555 kts | 84° |
| 2026-04-30 21:35 | 39.50032 | 95.53504 | 37130 ft | 556 kts | 84° |
| 2026-04-30 21:36 | 39.51158 | 95.63407 | 37134 ft | 556 kts | 84° |
| 2026-04-30 21:37 | 39.53398 | 95.83250 | 37092 ft | 557 kts | 84° |
| 2026-04-30 21:37 | 39.54505 | 95.93185 | 37123 ft | 558 kts | 85° |
| 2026-04-30 21:38 | 39.55546 | 96.03158 | 37113 ft | 555 kts | 90° |
| 2026-04-30 21:38 | 39.55484 | 96.08122 | 37116 ft | 548 kts | 102° |
| 2026-04-30 21:38 | 39.54829 | 96.12942 | 37117 ft | 540 kts | 111° |
| 2026-04-30 21:39 | 39.52085 | 96.21839 | 37124 ft | 527 kts | 126° |
| 2026-04-30 21:39 | 39.48643 | 96.30187 | 37118 ft | 529 kts | 127° |
| 2026-04-30 21:40 | 39.45222 | 96.38597 | 37103 ft | 526 kts | 126° |
| 2026-04-30 21:40 | 39.41869 | 96.47007 | 37122 ft | 527 kts | 126° |
| 2026-04-30 21:41 | 39.38514 | 96.55441 | 37120 ft | 528 kts | 126° |
| 2026-04-30 21:41 | 39.35143 | 96.63877 | 37111 ft | 527 kts | 126° |
| 2026-04-30 21:42 | 39.31774 | 96.72285 | 37098 ft | 526 kts | 126° |
| 2026-04-30 21:42 | 39.28403 | 96.80666 | 37096 ft | 526 kts | 126° |
| 2026-04-30 21:43 | 39.25030 | 96.89072 | 37083 ft | 526 kts | 126° |
| 2026-04-30 21:43 | 39.21717 | 96.97451 | 37052 ft | 529 kts | 125° |
| 2026-04-30 21:44 | 39.18367 | 97.05918 | 37088 ft | 529 kts | 125° |
| 2026-04-30 21:44 | 39.15026 | 97.14332 | 37072 ft | 525 kts | 125° |
| 2026-04-30 21:45 | 39.11686 | 97.22707 | 37075 ft | 525 kts | 125° |
| 2026-04-30 21:45 | 39.08323 | 97.31090 | 37083 ft | 528 kts | 125° |
| 2026-04-30 21:46 | 39.04964 | 97.39466 | 37082 ft | 530 kts | 125° |
| 2026-04-30 21:46 | 39.01589 | 97.47868 | 37071 ft | 527 kts | 125° |
| 2026-04-30 21:47 | 38.98213 | 97.56242 | 37067 ft | 528 kts | 126° |
| 2026-04-30 21:47 | 38.94821 | 97.64621 | 37059 ft | 527 kts | 126° |
| 2026-04-30 21:48 | 38.91425 | 97.72985 | 37061 ft | 527 kts | 126° |
| 2026-04-30 21:48 | 38.88048 | 97.81285 | 37056 ft | 527 kts | 126° |
| 2026-04-30 21:49 | 38.84649 | 97.89613 | 37048 ft | 523 kts | 126° |
| 2026-04-30 21:49 | 38.81271 | 97.97870 | 37055 ft | 523 kts | 126° |
| 2026-04-30 21:50 | 38.77867 | 98.06157 | 37046 ft | 525 kts | 126° |
| 2026-04-30 21:50 | 38.74462 | 98.14433 | 37044 ft | 525 kts | 126° |
| 2026-04-30 21:51 | 38.71058 | 98.22689 | 37044 ft | 522 kts | 126° |
| 2026-04-30 21:51 | 38.67651 | 98.30919 | 37020 ft | 522 kts | 126° |
| 2026-04-30 21:52 | 38.64221 | 98.39189 | 37036 ft | 527 kts | 126° |
| 2026-04-30 21:52 | 38.60813 | 98.47395 | 37057 ft | 524 kts | 126° |
| 2026-04-30 21:53 | 38.57387 | 98.55620 | 37031 ft | 522 kts | 126° |
| 2026-04-30 21:53 | 38.53959 | 98.63819 | 37044 ft | 524 kts | 126° |
| 2026-04-30 21:54 | 38.50509 | 98.72044 | 37061 ft | 525 kts | 125° |
| 2026-04-30 21:54 | 38.47070 | 98.80237 | 37047 ft | 522 kts | 126° |
| 2026-04-30 21:55 | 38.43645 | 98.88371 | 37056 ft | 523 kts | 126° |
| 2026-04-30 21:55 | 38.40185 | 98.96558 | 37052 ft | 525 kts | 126° |
| 2026-04-30 21:56 | 38.36715 | 99.04752 | 37039 ft | 524 kts | 126° |
| 2026-04-30 21:56 | 38.33253 | 99.12910 | 37048 ft | 523 kts | 126° |
| 2026-04-30 21:57 | 38.29787 | 99.21059 | 37048 ft | 523 kts | 126° |
| 2026-04-30 21:57 | 38.26301 | 99.29223 | 37046 ft | 524 kts | 126° |
| 2026-04-30 21:58 | 38.22813 | 99.37375 | 37028 ft | 524 kts | 126° |
| 2026-04-30 21:58 | 38.19348 | 99.45456 | 37045 ft | 523 kts | 126° |
| 2026-04-30 21:59 | 38.15850 | 99.53586 | 37041 ft | 524 kts | 126° |
| 2026-04-30 22:00 | 38.10597 | 99.65764 | 37030 ft | 523 kts | 126° |
| 2026-04-30 22:00 | 38.05338 | 99.77909 | 37040 ft | 523 kts | 126° |
| 2026-04-30 22:01 | 38.01821 | 99.86003 | 37033 ft | 523 kts | 126° |
| 2026-04-30 22:01 | 37.98301 | 99.94086 | 37031 ft | 523 kts | 126° |
| 2026-04-30 22:02 | 37.94772 | 100.02170 | 37024 ft | 523 kts | 126° |
| 2026-04-30 22:02 | 37.91266 | 100.10177 | 37035 ft | 524 kts | 126° |
| 2026-04-30 22:03 | 37.87721 | 100.18255 | 37033 ft | 524 kts | 126° |
| 2026-04-30 22:03 | 37.84176 | 100.26314 | 37023 ft | 524 kts | 126° |
| 2026-04-30 22:04 | 37.80624 | 100.34365 | 37007 ft | 524 kts | 126° |
| 2026-04-30 22:05 | 37.75276 | 100.46453 | 37041 ft | 525 kts | 126° |
| 2026-04-30 22:05 | 37.72309 | 100.53146 | 37033 ft | 526 kts | 126° |
| 2026-04-30 22:06 | 37.68728 | 100.61204 | 37032 ft | 526 kts | 126° |
| 2026-04-30 22:06 | 37.63395 | 100.73318 | 37028 ft | 527 kts | 124° |
| 2026-04-30 22:07 | 37.59976 | 100.81507 | 37031 ft | 527 kts | 123° |
| 2026-04-30 22:07 | 37.56572 | 100.89685 | 37028 ft | 526 kts | 123° |
| 2026-04-30 22:08 | 37.54850 | 100.93781 | 37148 ft | 530 kts | 123° |
| 2026-04-30 22:08 | 37.53125 | 100.97867 | 37569 ft | 526 kts | 124° |
| 2026-04-30 22:08 | 37.51409 | 101.01923 | 38123 ft | 522 kts | 124° |
| 2026-04-30 22:08 | 37.49707 | 101.05941 | 38590 ft | 518 kts | 124° |
| 2026-04-30 22:09 | 37.48030 | 101.09892 | 38907 ft | 518 kts | 124° |
| 2026-04-30 22:09 | 37.46327 | 101.13889 | 38956 ft | 520 kts | 124° |
| 2026-04-30 22:09 | 37.42902 | 101.21922 | 39019 ft | 520 kts | 124° |
| 2026-04-30 22:10 | 37.39477 | 101.29929 | 39020 ft | 519 kts | 124° |
| 2026-04-30 22:10 | 37.36071 | 101.37890 | 39023 ft | 518 kts | 124° |
| 2026-04-30 22:11 | 37.30949 | 101.49910 | 39018 ft | 522 kts | 121° |
| 2026-04-30 22:12 | 37.28308 | 101.58460 | 39006 ft | 528 kts | 110° |
| 2026-04-30 22:12 | 37.26359 | 101.67291 | 39010 ft | 527 kts | 109° |
| 2026-04-30 22:13 | 37.24392 | 101.76192 | 39034 ft | 528 kts | 109° |
| 2026-04-30 22:13 | 37.22368 | 101.85021 | 39008 ft | 529 kts | 110° |
| 2026-04-30 22:14 | 37.20318 | 101.93895 | 39017 ft | 529 kts | 109° |
| 2026-04-30 22:14 | 37.18270 | 102.02748 | 39035 ft | 531 kts | 109° |
| 2026-04-30 22:15 | 37.16196 | 102.11637 | 39031 ft | 530 kts | 109° |
| 2026-04-30 22:15 | 37.14124 | 102.20462 | 39035 ft | 530 kts | 110° |
| 2026-04-30 22:16 | 37.11904 | 102.29280 | 39033 ft | 526 kts | 115° |
| 2026-04-30 22:17 | 37.04839 | 102.45129 | 39066 ft | 523 kts | 127° |
| 2026-04-30 22:17 | 36.98992 | 102.56645 | 39076 ft | 520 kts | 126° |
| 2026-04-30 22:18 | 36.93205 | 102.68179 | 39052 ft | 523 kts | 126° |
| 2026-04-30 22:19 | 36.87422 | 102.79675 | 39049 ft | 523 kts | 126° |
| 2026-04-30 22:20 | 36.81628 | 102.91221 | 39038 ft | 523 kts | 123° |
| 2026-04-30 22:20 | 36.76782 | 103.03464 | 39039 ft | 526 kts | 118° |
| 2026-04-30 22:21 | 36.73642 | 103.11726 | 39017 ft | 526 kts | 118° |
| 2026-04-30 22:21 | 36.70469 | 103.19925 | 39035 ft | 525 kts | 119° |
| 2026-04-30 22:22 | 36.67289 | 103.28065 | 39017 ft | 525 kts | 119° |
| 2026-04-30 22:22 | 36.64082 | 103.36256 | 39032 ft | 524 kts | 119° |
| 2026-04-30 22:23 | 36.60892 | 103.44391 | 39010 ft | 524 kts | 119° |
| 2026-04-30 22:23 | 36.57681 | 103.52564 | 39033 ft | 524 kts | 118° |
| 2026-04-30 22:24 | 36.54051 | 103.60382 | 39016 ft | 519 kts | 130° |
| 2026-04-30 22:24 | 36.49313 | 103.66988 | 39025 ft | 512 kts | 143° |
| 2026-04-30 22:25 | 36.43847 | 103.72685 | 39031 ft | 511 kts | 145° |
| 2026-04-30 22:25 | 36.38378 | 103.78274 | 39019 ft | 511 kts | 145° |
| 2026-04-30 22:26 | 36.30212 | 103.86736 | 39010 ft | 510 kts | 144° |
| 2026-04-30 22:27 | 36.24754 | 103.92421 | 38993 ft | 510 kts | 144° |
| 2026-04-30 22:27 | 36.16603 | 104.00885 | 39001 ft | 511 kts | 144° |
| 2026-04-30 22:28 | 36.08436 | 104.09336 | 38985 ft | 511 kts | 144° |
| 2026-04-30 22:29 | 35.97502 | 104.20613 | 38987 ft | 512 kts | 144° |
| 2026-04-30 22:31 | 35.76776 | 104.35611 | 38979 ft | 486 kts | 185° |
| 2026-04-30 22:32 | 35.59870 | 104.35642 | 38958 ft | 486 kts | 185° |
| 2026-04-30 22:33 | 35.42947 | 104.35917 | 38963 ft | 488 kts | 185° |
| 2026-04-30 22:35 | 35.25943 | 104.36195 | 38944 ft | 490 kts | 185° |
| 2026-04-30 22:36 | 35.08865 | 104.36468 | 38926 ft | 492 kts | 185° |
| 2026-04-30 22:37 | 34.95177 | 104.36687 | 38922 ft | 494 kts | 185° |
| 2026-04-30 22:38 | 34.81400 | 104.36907 | 38915 ft | 495 kts | 186° |
| 2026-04-30 22:39 | 34.71066 | 104.37072 | 38913 ft | 495 kts | 186° |
| 2026-04-30 22:40 | 34.50387 | 104.37399 | 38904 ft | 497 kts | 186° |
| 2026-04-30 22:41 | 34.33065 | 104.37670 | 38889 ft | 499 kts | 186° |
| 2026-04-30 22:43 | 34.12153 | 104.37998 | 38874 ft | 504 kts | 186° |
| 2026-04-30 22:44 | 33.98130 | 104.38217 | 38875 ft | 501 kts | 187° |
| 2026-04-30 22:45 | 33.77103 | 104.38542 | 38876 ft | 507 kts | 187° |
| 2026-04-30 22:47 | 33.56050 | 104.41678 | 38868 ft | 532 kts | 159° |
| 2026-04-30 22:48 | 33.43354 | 104.50968 | 38874 ft | 535 kts | 155° |
| 2026-04-30 22:49 | 33.33029 | 104.55199 | 38888 ft | 517 kts | 179° |
| 2026-04-30 22:49 | 33.22384 | 104.55970 | 38888 ft | 510 kts | 186° |
| 2026-04-30 22:51 | 33.01127 | 104.57229 | 38892 ft | 510 kts | 185° |
| 2026-04-30 22:52 | 32.90510 | 104.57907 | 38887 ft | 511 kts | 185° |
| 2026-04-30 22:53 | 32.76528 | 104.58802 | 38796 ft | 474 kts | 184° |
| 2026-04-30 22:53 | 32.70130 | 104.59122 | 38843 ft | 451 kts | 185° |
| 2026-04-30 22:53 | 32.67034 | 104.59242 | 38895 ft | 450 kts | 186° |
| 2026-04-30 22:55 | 32.51111 | 104.59941 | 38903 ft | 457 kts | 186° |
| 2026-04-30 22:56 | 32.38440 | 104.60508 | 38920 ft | 458 kts | 185° |
| 2026-04-30 22:57 | 32.23625 | 104.61337 | 38919 ft | 455 kts | 185° |
| 2026-04-30 22:58 | 32.11030 | 104.62021 | 38906 ft | 453 kts | 185° |
| 2026-04-30 22:59 | 31.92123 | 104.63043 | 38895 ft | 451 kts | 185° |